sensor_id;sensor_type;location;lat;lon;timestamp;pressure;altitude;pressure_sealevel;temperature;humidity
61674;BME280;47573;43.832;5.974;2023-05-23T00:06:37;95116.53;;;26.49;72.80
61674;BME280;47573;43.832;5.974;2023-05-23T00:13:17;95102.28;;;26.47;72.75
61674;BME280;47573;43.832;5.974;2023-05-23T00:19:59;95102.84;;;26.49;72.65
61674;BME280;47573;43.832;5.974;2023-05-23T00:26:40;95096.81;;;26.47;72.40
61674;BME280;47573;43.832;5.974;2023-05-23T00:33:20;95081.78;;;26.45;72.44
61674;BME280;47573;43.832;5.974;2023-05-23T00:40:02;95085.31;;;26.40;72.63
61674;BME280;47573;43.832;5.974;2023-05-23T00:46:44;95077.66;;;26.42;72.35
61674;BME280;47573;43.832;5.974;2023-05-23T00:53:26;95063.41;;;26.40;72.16
61674;BME280;47573;43.832;5.974;2023-05-23T01:00:09;95055.72;;;26.37;72.32
61674;BME280;47573;43.832;5.974;2023-05-23T01:06:51;95044.25;;;26.40;72.01
61674;BME280;47573;43.832;5.974;2023-05-23T01:13:38;95034.38;;;26.39;72.29
61674;BME280;47573;43.832;5.974;2023-05-23T01:20:24;95039.59;;;26.36;72.32
61674;BME280;47573;43.832;5.974;2023-05-23T01:27:09;95042.03;;;26.32;72.49
61674;BME280;47573;43.832;5.974;2023-05-23T01:33:55;95020.69;;;26.34;72.17
61674;BME280;47573;43.832;5.974;2023-05-23T01:40:37;95016.31;;;26.28;72.39
61674;BME280;47573;43.832;5.974;2023-05-23T01:47:19;95016.31;;;26.28;72.03
61674;BME280;47573;43.832;5.974;2023-05-23T01:54:02;95023.16;;;26.25;71.99
61674;BME280;47573;43.832;5.974;2023-05-23T02:00:42;95026.69;;;26.21;72.28
61674;BME280;47573;43.832;5.974;2023-05-23T02:07:23;95020.66;;;26.19;72.24
61674;BME280;47573;43.832;5.974;2023-05-23T02:14:05;95017.94;;;26.19;72.02
61674;BME280;47573;43.832;5.974;2023-05-23T02:20:46;95019.28;;;26.16;71.84
61674;BME280;47573;43.832;5.974;2023-05-23T02:27:26;95013.00;;;26.11;71.98
61674;BME280;47573;43.832;5.974;2023-05-23T02:34:09;95017.34;;;26.12;71.79
61674;BME280;47573;43.832;5.974;2023-05-23T02:40:49;95008.28;;;26.06;71.94
61674;BME280;47573;43.832;5.974;2023-05-23T02:47:29;95003.06;;;26.00;72.10
61674;BME280;47573;43.832;5.974;2023-05-23T02:54:11;95012.94;;;26.01;71.71
61674;BME280;47573;43.832;5.974;2023-05-23T03:00:52;95006.91;;;25.99;71.82
61674;BME280;47573;43.832;5.974;2023-05-23T03:07:32;95008.53;;;25.95;71.69
61674;BME280;47573;43.832;5.974;2023-05-23T03:14:14;95005.81;;;25.95;71.55
61674;BME280;47573;43.832;5.974;2023-05-23T03:20:55;95005.78;;;25.90;71.56
61674;BME280;47573;43.832;5.974;2023-05-23T03:27:35;95011.53;;;25.88;71.57
61674;BME280;47573;43.832;5.974;2023-05-23T03:34:17;95007.41;;;25.86;71.38
61674;BME280;47573;43.832;5.974;2023-05-23T03:40:58;94990.72;;;25.82;71.56
61674;BME280;47573;43.832;5.974;2023-05-23T03:47:38;94999.16;;;25.81;71.67
61674;BME280;47573;43.832;5.974;2023-05-23T03:54:20;95005.72;;;25.75;71.71
61674;BME280;47573;43.832;5.974;2023-05-23T04:01:00;95003.78;;;25.70;71.72
61674;BME280;47573;43.832;5.974;2023-05-23T04:07:42;95011.75;;;25.72;71.69
61674;BME280;47573;43.832;5.974;2023-05-23T04:14:24;95011.47;;;25.73;71.45
61674;BME280;47573;43.832;5.974;2023-05-23T04:21:04;95013.91;;;25.70;71.90
61674;BME280;47573;43.832;5.974;2023-05-23T04:27:45;95013.59;;;25.66;71.83
61674;BME280;47573;43.832;5.974;2023-05-23T04:34:27;95010.63;;;25.68;71.54
61674;BME280;47573;43.832;5.974;2023-05-23T04:41:07;95017.72;;;25.69;71.45
61674;BME280;47573;43.832;5.974;2023-05-23T04:47:48;95030.31;;;25.70;71.40
61674;BME280;47573;43.832;5.974;2023-05-23T04:54:30;95025.94;;;25.69;71.43
61674;BME280;47573;43.832;5.974;2023-05-23T05:01:10;95035.78;;;25.70;71.36
61674;BME280;47573;43.832;5.974;2023-05-23T05:07:51;95040.16;;;25.71;71.07
61674;BME280;47573;43.832;5.974;2023-05-23T05:14:33;95025.94;;;25.69;71.44
61674;BME280;47573;43.832;5.974;2023-05-23T05:21:13;95034.69;;;25.66;69.15
61674;BME280;47573;43.832;5.974;2023-05-23T05:27:54;95039.59;;;25.69;67.41
61674;BME280;47573;43.832;5.974;2023-05-23T05:34:35;95033.53;;;25.57;67.35
61674;BME280;47573;43.832;5.974;2023-05-23T05:41:16;95044.50;;;25.62;67.21
61674;BME280;47573;43.832;5.974;2023-05-23T05:47:57;95032.97;;;25.55;66.40
61674;BME280;47573;43.832;5.974;2023-05-23T05:54:39;95040.66;;;25.63;66.61
61674;BME280;47573;43.832;5.974;2023-05-23T06:01:19;95034.13;;;25.64;66.52
61674;BME280;47573;43.832;5.974;2023-05-23T06:08:00;95037.09;;;25.62;66.89
61674;BME280;47573;43.832;5.974;2023-05-23T06:14:42;95039.03;;;25.62;66.74
61674;BME280;47573;43.832;5.974;2023-05-23T06:21:22;95040.16;;;25.71;66.81
61674;BME280;47573;43.832;5.974;2023-05-23T06:28:03;95045.06;;;25.69;67.44
61674;BME280;47573;43.832;5.974;2023-05-23T06:34:45;95041.78;;;25.67;66.55
61674;BME280;47573;43.832;5.974;2023-05-23T06:41:25;95051.09;;;25.66;67.13
61674;BME280;47573;43.832;5.974;2023-05-23T06:48:06;95045.66;;;25.76;67.15
61674;BME280;47573;43.832;5.974;2023-05-23T06:54:47;95045.66;;;25.76;67.08
61674;BME280;47573;43.832;5.974;2023-05-23T07:01:28;95049.78;;;25.78;67.27
61674;BME280;47573;43.832;5.974;2023-05-23T07:08:08;95053.88;;;25.81;67.01
61674;BME280;47573;43.832;5.974;2023-05-23T07:14:50;95049.22;;;25.81;67.69
61674;BME280;47573;43.832;5.974;2023-05-23T07:21:31;95055.56;;;25.92;67.16
61674;BME280;47573;43.832;5.974;2023-05-23T07:28:11;95061.03;;;25.92;67.16
61674;BME280;47573;43.832;5.974;2023-05-23T07:34:53;95055.56;;;25.92;66.78
61674;BME280;47573;43.832;5.974;2023-05-23T07:41:34;95057.50;;;25.96;67.11
61674;BME280;47573;43.832;5.974;2023-05-23T07:48:14;95060.56;;;26.05;67.05
61674;BME280;47573;43.832;5.974;2023-05-23T07:54:56;95056.72;;;26.06;67.34
61674;BME280;47573;43.832;5.974;2023-05-23T08:01:37;95051.84;;;26.13;67.15
61674;BME280;47573;43.832;5.974;2023-05-23T08:08:17;95048.56;;;26.11;67.35
61674;BME280;47573;43.832;5.974;2023-05-23T08:14:59;95046.91;;;26.20;67.00
61674;BME280;47573;43.832;5.974;2023-05-23T08:21:40;95056.72;;;26.01;66.63
61674;BME280;47573;43.832;5.974;2023-05-23T08:28:20;95057.22;;;25.93;65.11
61674;BME280;47573;43.832;5.974;2023-05-23T08:35:03;95057.16;;;25.83;67.42
61674;BME280;47573;43.832;5.974;2023-05-23T08:41:43;95058.94;;;26.09;67.04
61674;BME280;47573;43.832;5.974;2023-05-23T08:48:25;95056.22;;;26.24;66.71
61674;BME280;47573;43.832;5.974;2023-05-23T08:55:09;95062.84;;;26.33;66.72
61674;BME280;47573;43.832;5.974;2023-05-23T09:01:50;95046.44;;;26.38;66.56
61674;BME280;47573;43.832;5.974;2023-05-23T09:08:32;95049.44;;;26.42;66.56
61674;BME280;47573;43.832;5.974;2023-05-23T09:15:15;95053.56;;;26.44;66.36
61674;BME280;47573;43.832;5.974;2023-05-23T09:21:55;95052.47;;;26.50;66.25
61674;BME280;47573;43.832;5.974;2023-05-23T09:28:37;95048.63;;;26.51;66.54
61674;BME280;47573;43.832;5.974;2023-05-23T09:35:21;95044.25;;;26.55;66.31
61674;BME280;47573;43.832;5.974;2023-05-23T09:42:02;95045.91;;;26.56;65.75
61674;BME280;47573;43.832;5.974;2023-05-23T09:48:45;95051.41;;;26.66;65.83
61674;BME280;47573;43.832;5.974;2023-05-23T09:55:27;95041.53;;;26.70;65.65
61674;BME280;47573;43.832;5.974;2023-05-23T10:02:10;95041.03;;;26.83;60.96
61674;BME280;47573;43.832;5.974;2023-05-23T10:08:56;95031.69;;;26.84;59.24
61674;BME280;47573;43.832;5.974;2023-05-23T10:15:40;95041.03;;;26.83;60.15
61674;BME280;47573;43.832;5.974;2023-05-23T10:22:22;95041.56;;;26.95;60.13
61674;BME280;47573;43.832;5.974;2023-05-23T10:29:06;95037.22;;;26.94;59.24
61674;BME280;47573;43.832;5.974;2023-05-23T10:35:55;95027.84;;;27.05;59.06
61674;BME280;47573;43.832;5.974;2023-05-23T10:42:42;95023.47;;;27.09;58.35
61674;BME280;47573;43.832;5.974;2023-05-23T10:49:37;95021.28;;;27.12;58.04
61674;BME280;47573;43.832;5.974;2023-05-23T10:56:22;95019.88;;;27.24;57.49
61674;BME280;47573;43.832;5.974;2023-05-23T11:03:04;95016.06;;;27.25;57.04
61674;BME280;47573;43.832;5.974;2023-05-23T11:10:03;95004.28;;;27.35;54.91
61674;BME280;47573;43.832;5.974;2023-05-23T11:16:45;94998.78;;;27.40;55.37
61674;BME280;47573;43.832;5.974;2023-05-23T11:23:39;95015.75;;;27.47;55.95
61674;BME280;47573;43.832;5.974;2023-05-23T11:30:20;94999.03;;;27.48;54.61
61674;BME280;47573;43.832;5.974;2023-05-23T11:37:02;94978.03;;;27.82;49.51
61674;BME280;47573;43.832;5.974;2023-05-23T11:43:49;94991.06;;;27.57;52.35
61674;BME280;47573;43.832;5.974;2023-05-23T11:50:29;94982.00;;;27.51;53.34
61674;BME280;47573;43.832;5.974;2023-05-23T11:57:12;94983.09;;;27.55;53.65
61674;BME280;47573;43.832;5.974;2023-05-23T12:03:53;94980.09;;;27.57;53.45
61674;BME280;47573;43.832;5.974;2023-05-23T12:10:33;94982.00;;;27.56;53.28
61674;BME280;47573;43.832;5.974;2023-05-23T12:17:16;94972.25;;;27.89;52.63
61674;BME280;47573;43.832;5.974;2023-05-23T12:23:57;94954.06;;;28.08;49.32
61674;BME280;47573;43.832;5.974;2023-05-23T12:30:40;94952.09;;;28.14;46.93
61674;BME280;47573;43.832;5.974;2023-05-23T12:37:22;94940.25;;;28.23;47.03
61674;BME280;47573;43.832;5.974;2023-05-23T12:44:03;94947.94;;;28.21;46.52
61674;BME280;47573;43.832;5.974;2023-05-23T12:50:44;94948.75;;;28.22;46.18
61674;BME280;47573;43.832;5.974;2023-05-23T12:57:26;94951.59;;;28.07;47.00
61674;BME280;47573;43.832;5.974;2023-05-23T13:04:06;94965.09;;;27.98;47.88
61674;BME280;47573;43.832;5.974;2023-05-23T13:10:47;94973.31;;;27.93;48.70
61674;BME280;47573;43.832;5.974;2023-05-23T13:17:28;94971.41;;;27.88;50.54
61674;BME280;47573;43.832;5.974;2023-05-23T13:24:09;94968.97;;;27.87;51.09
61674;BME280;47573;43.832;5.974;2023-05-23T13:30:50;94979.16;;;27.76;52.25
61674;BME280;47573;43.832;5.974;2023-05-23T13:37:32;94993.72;;;27.72;53.12
61674;BME280;47573;43.832;5.974;2023-05-23T13:44:12;95005.84;;;27.56;55.93
61674;BME280;47573;43.832;5.974;2023-05-23T13:50:54;95006.72;;;27.46;58.11
61674;BME280;47573;43.832;5.974;2023-05-23T13:57:36;95012.50;;;27.30;58.49
61674;BME280;47573;43.832;5.974;2023-05-23T14:04:16;95020.16;;;27.48;56.39
61674;BME280;47573;43.832;5.974;2023-05-23T14:10:57;95021.25;;;27.27;57.69
61674;BME280;47573;43.832;5.974;2023-05-23T14:17:39;95014.69;;;27.38;57.87
61674;BME280;47573;43.832;5.974;2023-05-23T14:24:19;94996.56;;;27.47;58.01
61674;BME280;47573;43.832;5.974;2023-05-23T14:31:00;94972.19;;;27.35;58.76
61674;BME280;47573;43.832;5.974;2023-05-23T14:37:43;94978.56;;;26.85;64.08
61674;BME280;47573;43.832;5.974;2023-05-23T14:44:24;94978.00;;;26.88;63.76
61674;BME280;47573;43.832;5.974;2023-05-23T14:51:04;94970.91;;;26.77;63.53
61674;BME280;47573;43.832;5.974;2023-05-23T14:57:46;94968.72;;;26.74;65.46
61674;BME280;47573;43.832;5.974;2023-05-23T15:04:29;94957.75;;;26.69;65.40
61674;BME280;47573;43.832;5.974;2023-05-23T15:11:09;94944.31;;;26.83;65.49
61674;BME280;47573;43.832;5.974;2023-05-23T15:17:51;94951.72;;;26.82;63.67
61674;BME280;47573;43.832;5.974;2023-05-23T15:24:32;94943.53;;;26.77;62.28
61674;BME280;47573;43.832;5.974;2023-05-23T15:31:12;94940.75;;;26.82;61.48
61674;BME280;47573;43.832;5.974;2023-05-23T15:37:54;94944.59;;;26.91;60.82
61674;BME280;47573;43.832;5.974;2023-05-23T15:44:35;94954.44;;;26.97;59.32
61674;BME280;47573;43.832;5.974;2023-05-23T15:51:15;94958.00;;;26.93;60.72
61674;BME280;47573;43.832;5.974;2023-05-23T15:57:58;94954.44;;;26.47;63.27
61674;BME280;47573;43.832;5.974;2023-05-23T16:04:39;94963.19;;;26.49;62.84
61674;BME280;47573;43.832;5.974;2023-05-23T16:11:19;94965.13;;;26.34;64.27
61674;BME280;47573;43.832;5.974;2023-05-23T16:18:01;94974.72;;;26.46;65.22
61674;BME280;47573;43.832;5.974;2023-05-23T16:24:42;94982.91;;;26.31;66.16
61674;BME280;47573;43.832;5.974;2023-05-23T16:31:25;94968.13;;;26.27;66.68
61674;BME280;47573;43.832;5.974;2023-05-23T16:38:07;94962.66;;;26.27;66.92
61674;BME280;47573;43.832;5.974;2023-05-23T16:44:47;94945.69;;;26.25;67.05
61674;BME280;47573;43.832;5.974;2023-05-23T16:51:28;94953.34;;;26.43;67.36
61674;BME280;47573;43.832;5.974;2023-05-23T16:58:10;94949.78;;;26.27;67.87
61674;BME280;47573;43.832;5.974;2023-05-23T17:04:50;94958.81;;;26.23;68.67
61674;BME280;47573;43.832;5.974;2023-05-23T17:11:31;94941.03;;;26.56;67.48
61674;BME280;47573;43.832;5.974;2023-05-23T17:18:13;94927.91;;;26.78;65.48
61674;BME280;47573;43.832;5.974;2023-05-23T17:24:53;94947.31;;;26.86;65.14
61674;BME280;47573;43.832;5.974;2023-05-23T17:31:34;94967.88;;;26.89;64.82
61674;BME280;47573;43.832;5.974;2023-05-23T17:38:15;94969.25;;;26.91;64.83
61674;BME280;47573;43.832;5.974;2023-05-23T17:44:56;94959.13;;;26.92;65.10
61674;BME280;47573;43.832;5.974;2023-05-23T17:51:36;94967.84;;;26.99;64.64
61674;BME280;47573;43.832;5.974;2023-05-23T17:58:18;94965.69;;;26.96;65.17
61674;BME280;47573;43.832;5.974;2023-05-23T18:04:59;94973.34;;;26.99;65.08
61674;BME280;47573;43.832;5.974;2023-05-23T18:11:39;94972.50;;;27.08;65.06
61674;BME280;47573;43.832;5.974;2023-05-23T18:18:21;94962.09;;;27.11;65.14
61674;BME280;47573;43.832;5.974;2023-05-23T18:25:02;94957.16;;;27.13;65.45
61674;BME280;47573;43.832;5.974;2023-05-23T18:31:43;94966.47;;;27.12;65.85
61674;BME280;47573;43.832;5.974;2023-05-23T18:38:25;94985.66;;;27.06;65.69
61674;BME280;47573;43.832;5.974;2023-05-23T18:45:06;95009.78;;;27.15;65.56
61674;BME280;47573;43.832;5.974;2023-05-23T18:51:47;95015.25;;;27.15;65.85
61674;BME280;47573;43.832;5.974;2023-05-23T18:58:29;95027.28;;;27.14;65.97
61674;BME280;47573;43.832;5.974;2023-05-23T19:05:10;95027.84;;;27.16;66.08
61674;BME280;47573;43.832;5.974;2023-05-23T19:11:50;95032.25;;;27.22;65.70
61674;BME280;47573;43.832;5.974;2023-05-23T19:18:32;95030.59;;;27.26;65.65
61674;BME280;47573;43.832;5.974;2023-05-23T19:25:13;95042.09;;;27.28;65.21
61674;BME280;47573;43.832;5.974;2023-05-23T19:31:53;95045.94;;;27.27;65.46
61674;BME280;47573;43.832;5.974;2023-05-23T19:38:35;95046.75;;;27.27;65.36
61674;BME280;47573;43.832;5.974;2023-05-23T19:45:16;95043.19;;;27.32;65.61
61674;BME280;47573;43.832;5.974;2023-05-23T19:51:57;95038.81;;;27.36;65.33
61674;BME280;47573;43.832;5.974;2023-05-23T19:58:38;95043.19;;;27.32;65.44
61674;BME280;47573;43.832;5.974;2023-05-23T20:05:19;95039.91;;;27.40;65.24
61674;BME280;47573;43.832;5.974;2023-05-23T20:12:00;95025.66;;;27.38;65.47
61674;BME280;47573;43.832;5.974;2023-05-23T20:18:42;95044.31;;;27.36;65.67
61674;BME280;47573;43.832;5.974;2023-05-23T20:25:22;95046.75;;;27.37;66.07
61674;BME280;47573;43.832;5.974;2023-05-23T20:32:03;95054.44;;;27.35;66.43
61674;BME280;47573;43.832;5.974;2023-05-23T20:38:45;95054.16;;;27.32;66.75
61674;BME280;47573;43.832;5.974;2023-05-23T20:45:26;95049.75;;;27.31;66.84
61674;BME280;47573;43.832;5.974;2023-05-23T20:52:06;95053.03;;;27.33;67.04
61674;BME280;47573;43.832;5.974;2023-05-23T20:58:48;95045.38;;;27.30;67.06
61674;BME280;47573;43.832;5.974;2023-05-23T21:05:29;95041.81;;;27.34;66.98
61674;BME280;47573;43.832;5.974;2023-05-23T21:12:09;95034.41;;;27.30;67.05
61674;BME280;47573;43.832;5.974;2023-05-23T21:18:51;95027.84;;;27.26;66.85
61674;BME280;47573;43.832;5.974;2023-05-23T21:25:32;95026.19;;;27.25;67.49
61674;BME280;47573;43.832;5.974;2023-05-23T21:32:12;95019.09;;;27.24;67.42
61674;BME280;47573;43.832;5.974;2023-05-23T21:38:54;95013.03;;;27.27;67.24
61674;BME280;47573;43.832;5.974;2023-05-23T21:45:35;95014.13;;;27.21;67.66
61674;BME280;47573;43.832;5.974;2023-05-23T21:52:15;95008.94;;;27.19;67.30
61674;BME280;47573;43.832;5.974;2023-05-23T21:58:57;95003.19;;;27.16;67.49
61674;BME280;47573;43.832;5.974;2023-05-23T22:05:37;95005.91;;;27.16;67.65
61674;BME280;47573;43.832;5.974;2023-05-23T22:12:18;95008.09;;;27.14;67.41
61674;BME280;47573;43.832;5.974;2023-05-23T22:19:00;95011.41;;;27.16;67.29
61674;BME280;47573;43.832;5.974;2023-05-23T22:25:40;95001.84;;;27.13;67.46
61674;BME280;47573;43.832;5.974;2023-05-23T22:32:21;95000.19;;;27.12;67.66
61674;BME280;47573;43.832;5.974;2023-05-23T22:39:02;95003.19;;;27.11;67.67
61674;BME280;47573;43.832;5.974;2023-05-23T22:45:43;95013.63;;;27.08;67.60
61674;BME280;47573;43.832;5.974;2023-05-23T22:52:24;95001.53;;;27.09;67.39
61674;BME280;47573;43.832;5.974;2023-05-23T22:59:05;94983.19;;;27.15;67.29
61674;BME280;47573;43.832;5.974;2023-05-23T23:05:46;94985.09;;;27.09;67.42
61674;BME280;47573;43.832;5.974;2023-05-23T23:12:27;94996.06;;;27.09;67.26
61674;BME280;47573;43.832;5.974;2023-05-23T23:19:08;94992.78;;;27.07;67.30
61674;BME280;47573;43.832;5.974;2023-05-23T23:25:49;94980.72;;;27.08;67.37
61674;BME280;47573;43.832;5.974;2023-05-23T23:32:29;94973.34;;;27.04;67.22
61674;BME280;47573;43.832;5.974;2023-05-23T23:39:11;94981.84;;;27.02;67.54
61674;BME280;47573;43.832;5.974;2023-05-23T23:45:52;94976.06;;;26.99;67.42
61674;BME280;47573;43.832;5.974;2023-05-23T23:52:32;94984.59;;;27.02;67.33
61674;BME280;47573;43.832;5.974;2023-05-23T23:59:14;94971.69;;;26.98;67.75
